Flight Track Log - Related Links

Times and Time Zones

All times are in EDT time to prevent confusion due to time zone crossing. See the N988EC flight status page for this flight to view local times or setup timezone preferences in your user account.


Time Position Orientation Groundspeed Altitude Reporting Facility
EDT Latitude Longitude Course Direction KTS MPH feet Rate Location/Type
Sun 05:50:45 PM 34.5772 -83.4031 290° West 269 310 7,300  Level Atlanta Center
Sun 05:51:45 PM 34.5922 -83.4533 290° West 222 255 8,100 800 Climbing Atlanta Center
Sun 05:52:45 PM 34.6114 -83.5114 292° West 194 223 8,900 900 Climbing Atlanta Center
Sun 05:53:45 PM 34.6344 -83.5742 294° West 187 215 9,900 1,050 Climbing Atlanta Center
Sun 05:54:45 PM 34.6533 -83.6297 292° West 187 215 11,000 900 Climbing Atlanta Center
Sun 05:55:45 PM 34.6725 -83.6828 294° West 187 215 11,700 900 Climbing Atlanta Center
Sun 05:56:00 PM 34.7445 -83.7441 290° West  Level Estimated
Sun 05:56:45 PM 34.6914 -83.7406 292° West 185 213 12,800  Level Atlanta Center
Sun 05:57:45 PM 34.7122 -83.7986 294° West 185 213 13,700 900 Climbing Atlanta Center
Sun 05:58:45 PM 34.7333 -83.8644 291° West 197 227 14,600 950 Climbing Atlanta Center
Sun 05:59:45 PM 34.7542 -83.9250 293° West 207 238 15,600 1,000 Climbing Atlanta Center
Sun 06:00:45 PM 34.7753 -83.9883 292° West 207 238 16,600 1,000 Climbing Atlanta Center
Sun 06:01:45 PM 34.7981 -84.0539 293° West 202 232 17,600 1,050 Climbing Atlanta Center
Sun 06:02:45 PM 34.8169 -84.1147 291° West 202 232 18,700 1,150 Climbing Atlanta Center
Sun 06:03:45 PM 34.8378 -84.1728 294° West 197 227 19,900 1,100 Climbing Atlanta Center
Sun 06:04:45 PM 34.8586 -84.2286 294° West 187 215 20,900 1,000 Climbing Atlanta Center
Sun 06:05:45 PM 34.8772 -84.2869 291° West 187 215 21,900 950 Climbing Atlanta Center
Sun 06:06:45 PM 34.8958 -84.3453 291° West 187 215 22,800 900 Climbing Atlanta Center
Sun 06:07:45 PM 34.9167 -84.4061 293° West 187 215 23,700 950 Climbing Atlanta Center
Sun 06:08:45 PM 34.9331 -84.4619 290° West 187 215 24,700 850 Climbing Atlanta Center
Sun 06:09:45 PM 34.9517 -84.5178 292° West 187 215 25,400 650 Climbing Atlanta Center
Sun 06:10:45 PM 34.9703 -84.5761 291° West 187 215 26,000 300 Climbing Atlanta Center
Sun 06:11:45 PM 34.9908 -84.6422 291° West 193 222 26,000  Level Atlanta Center
Sun 06:12:45 PM 35.0153 -84.7108 294° West 206 237 26,000  Level Atlanta Center
Sun 06:14:00 PM 35.0510 -84.8082 294° West  Level FlightAware Approximate
Sun 06:14:45 PM 35.0644 -84.8633 294° West 239 275 26,000  Level Atlanta Center
Sun 06:15:45 PM 35.0911 -84.9400 293° West 244 281 26,000  Level Atlanta Center
Sun 06:16:45 PM 35.1156 -85.0164 291° West 244 281 26,000  Level Atlanta Center
Sun 06:17:45 PM 35.1400 -85.0953 291° West 249 287 26,000  Level Atlanta Center
Sun 06:18:45 PM 35.1664 -85.1769 292° West 249 287 26,000  Level Atlanta Center
Sun 06:19:45 PM 35.1908 -85.2536 291° West 249 287 26,000  Level Atlanta Center
Sun 06:20:45 PM 35.2169 -85.3328 292° West 249 287 26,000  Level Atlanta Center
Sun 06:21:45 PM 35.2453 -85.4119 294° West 249 287 26,000  Level Atlanta Center
Sun 06:22:45 PM 35.2694 -85.4939 290° West 249 287 26,000  Level Atlanta Center
Sun 06:23:45 PM 35.2936 -85.5731 291° West 249 287 26,000  Level Atlanta Center
Sun 06:24:59 PM 35.3256 -85.6744 291° West 254 292 26,000  Level Memphis Center
Sun 06:25:59 PM 35.3517 -85.7544 292° West 259 298 26,000  Level Memphis Center
Sun 06:26:59 PM 35.3775 -85.8347 292° West 259 298 26,000  Level Memphis Center
Sun 06:27:59 PM 35.4014 -85.9147 290° West 259 298 26,000  Level Memphis Center
Sun 06:28:59 PM 35.4292 -85.9975 292° West 259 298 26,000  Level Memphis Center
Sun 06:29:59 PM 35.4531 -86.0803 290° West 264 304 26,000  Level Memphis Center
Sun 06:30:59 PM 35.4808 -86.1603 293° West 264 304 26,000  Level Memphis Center
Sun 06:31:59 PM 35.5064 -86.2433 291° West 270 311 26,000  Level Memphis Center
Sun 06:32:59 PM 35.5300 -86.3264 289° West 265 305 26,000  Level Memphis Center
Sun 06:33:59 PM 35.5578 -86.4092 292° West 265 305 26,000  Level Memphis Center
Sun 06:34:59 PM 35.5833 -86.4947 290° West 265 305 26,000  Level Memphis Center
Sun 06:35:59 PM 35.6067 -86.5753 290° West 265 305 26,000  Level Memphis Center
Sun 06:36:59 PM 35.6342 -86.6608 292° West 265 305 26,000  Level Memphis Center
Sun 06:37:59 PM 35.6594 -86.7364 292° West 265 305 26,000  Level Memphis Center
Sun 06:38:59 PM 35.6847 -86.8222 290° West 265 305 26,000  Level Memphis Center
Sun 06:39:59 PM 35.7081 -86.9056 289° West 265 305 26,000  Level Memphis Center
Sun 06:40:59 PM 35.7353 -86.9889 292° West 265 305 26,000  Level Memphis Center
Sun 06:41:59 PM 35.7606 -87.0747 290° West 265 305 26,000  Level Memphis Center
Sun 06:42:59 PM 35.7903 -87.1683 291° West 270 311 26,000  Level Memphis Center
Sun 06:43:59 PM 35.8153 -87.2569 289° West 270 311 26,000  Level Memphis Center
Sun 06:44:59 PM 35.8425 -87.3431 291° West 270 311 26,000  Level Memphis Center
Sun 06:45:59 PM 35.8694 -87.4264 292° West 270 311 26,000  Level Memphis Center
Sun 06:46:59 PM 35.8944 -87.5128 290° West 264 304 26,000  Level Memphis Center
Sun 06:47:59 PM 35.9172 -87.5939 289° West 264 304 26,000  Level Memphis Center
Sun 06:48:59 PM 35.9442 -87.6803 291° West 264 304 26,000  Level Memphis Center
Sun 06:49:59 PM 35.9686 -87.7614 290° West 264 304 26,000  Level Memphis Center
Sun 06:50:59 PM 35.9889 -87.8353 289° West 264 304 26,000  Level Memphis Center
Sun 06:51:59 PM 36.0158 -87.9192 292° West 264 304 26,000  Level Memphis Center
Sun 06:52:59 PM 36.0403 -88.0031 290° West 264 304 26,000  Level Memphis Center
Sun 06:53:59 PM 36.0647 -88.0844 290° West 264 304 26,000  Level Memphis Center
Sun 06:54:59 PM 36.0914 -88.1764 290° West 264 304 26,000  Level Memphis Center
Sun 06:55:59 PM 36.1158 -88.2606 290° West 264 304 26,000  Level Memphis Center
Sun 06:56:59 PM 36.1400 -88.3447 290° West 264 304 26,000  Level Memphis Center
Sun 06:57:59 PM 36.1644 -88.4289 290° West 264 304 26,000  Level Memphis Center
Sun 06:58:59 PM 36.1886 -88.5158 289° West 264 304 26,000  Level Memphis Center
Sun 06:59:59 PM 36.2128 -88.6000 290° West 264 304 26,000  Level Memphis Center
Sun 07:00:59 PM 36.2389 -88.6844 291° West 264 304 26,000  Level Memphis Center
Sun 07:01:59 PM 36.2611 -88.7714 288° West 264 304 26,000  Level Memphis Center
Sun 07:02:59 PM 36.2869 -88.8558 291° West 264 304 26,000  Level Memphis Center
Sun 07:03:59 PM 36.3111 -88.9431 289° West 264 304 26,000  Level Memphis Center
Sun 07:04:59 PM 36.3350 -89.0278 289° West 264 304 26,000  Level Memphis Center
Sun 07:05:59 PM 36.3586 -89.1147 289° West 264 304 26,000  Level Memphis Center
Sun 07:06:59 PM 36.3825 -89.1969 290° West 264 304 26,000  Level Memphis Center
Sun 07:07:59 PM 36.4061 -89.2842 289° West 272 313 26,000  Level Memphis Center
Sun 07:08:59 PM 36.4361 -89.3844 290° West 285 328 26,000  Level Memphis Center
Sun 07:09:59 PM 36.4556 -89.4617 287° West 280 322 26,000  Level Memphis Center
Sun 07:10:59 PM 36.4792 -89.5467 289° West 274 315 26,000  Level Memphis Center
Sun 07:11:59 PM 36.5047 -89.6392 289° West 269 310 26,000  Level Memphis Center
Sun 07:12:59 PM 36.5281 -89.7242 289° West 263 303 26,000  Level Memphis Center
Sun 07:13:59 PM 36.5514 -89.8094 289° West 263 303 26,000  Level Memphis Center
Sun 07:14:59 PM 36.5747 -89.8969 288° West 263 303 26,000  Level Memphis Center
Sun 07:15:59 PM 36.5978 -89.9847 288° West 263 303 26,000  Level Memphis Center
Sun 07:16:59 PM 36.6211 -90.0672 289° West 263 303 26,000  Level Memphis Center
Sun 07:17:59 PM 36.6442 -90.1528 289° West 263 303 26,000  Level Memphis Center
Sun 07:18:59 PM 36.6672 -90.2381 289° West 263 303 26,000  Level Memphis Center
Sun 07:19:59 PM 36.6903 -90.3208 289° West 263 303 26,000  Level Memphis Center
Sun 07:20:59 PM 36.7111 -90.4036 287° West 263 303 26,000  Level Memphis Center
Sun 07:21:59 PM 36.7339 -90.4889 288° West 263 303 26,000  Level Memphis Center
Sun 07:22:59 PM 36.7547 -90.5719 287° West 263 303 26,000  Level Memphis Center
Sun 07:23:59 PM 36.7794 -90.6575 290° West 263 303 26,000  Level Memphis Center
Sun 07:24:59 PM 36.8022 -90.7431 288° West 263 303 26,000  Level Memphis Center
Sun 07:25:59 PM 36.8247 -90.8261 289° West 263 303 26,000  Level Memphis Center
Sun 07:28:16 PM 36.8742 -91.0064 289° West 257 296 26,000  Level Kansas City Center
Sun 07:29:18 PM 36.8986 -91.0894 290° West 256 295 26,000  Level Kansas City Center
Sun 07:30:20 PM 36.9206 -91.1753 288° West 256 295 26,000  Level Kansas City Center
Sun 07:31:22 PM 36.9450 -91.2803 286° West 260 299 26,000  Level Kansas City Center
Sun 07:32:24 PM 36.9689 -91.3672 289° West 263 303 26,000  Level Kansas City Center
Sun 07:33:26 PM 36.9908 -91.4564 287° West 267 307 26,000  Level Kansas City Center
Sun 07:34:28 PM 37.0144 -91.5456 288° West 269 310 26,000  Level Kansas City Center
Sun 07:35:30 PM 37.0367 -91.6347 287° West 268 308 26,000  Level Kansas City Center
Sun 07:36:32 PM 37.0600 -91.7231 288° West 267 307 26,000  Level Kansas City Center
Sun 07:37:34 PM 37.0825 -91.8153 287° West 272 313 26,000  Level Kansas City Center
Sun 07:38:36 PM 37.1092 -91.9228 287° West 271 312 26,000  Level Kansas City Center
Sun 07:39:38 PM 37.1319 -92.0125 288° West 270 311 26,000  Level Kansas City Center
Sun 07:40:40 PM 37.1542 -92.1025 287° West 268 308 26,000  Level Kansas City Center
Sun 07:41:42 PM 37.1772 -92.1917 288° West 268 308 26,000  Level Kansas City Center
Sun 07:42:44 PM 37.1997 -92.2803 288° West 268 308 26,000  Level Kansas City Center
Sun 07:43:46 PM 37.2219 -92.3686 288° West 265 305 26,000  Level Kansas City Center
Sun 07:44:48 PM 37.2433 -92.4586 287° West 266 306 26,000  Level Kansas City Center
Sun 07:45:50 PM 37.2661 -92.5475 288° West 266 306 26,000  Level Kansas City Center
Sun 07:46:52 PM 37.2925 -92.6544 287° West 266 306 26,000  Level Kansas City Center
Sun 07:47:54 PM 37.3136 -92.7422 287° West 263 303 26,000  Level Kansas City Center
Sun 07:48:56 PM 37.3353 -92.8317 287° West 265 305 26,000  Level Kansas City Center
Sun 07:49:58 PM 37.3572 -92.9192 288° West 262 302 26,000  Level Kansas City Center
Sun 07:51:00 PM 37.3778 -93.0078 286° West 263 303 26,000  Level Kansas City Center
Sun 07:52:02 PM 37.4003 -93.0969 288° West 264 304 26,000  Level Kansas City Center
Sun 07:53:04 PM 37.4206 -93.1836 286° West 260 299 26,000  Level Kansas City Center
Sun 07:54:06 PM 37.4461 -93.2892 287° West 262 302 26,000  Level Kansas City Center
Sun 07:55:09 PM 37.4672 -93.3781 287° West 263 303 26,000  Level Kansas City Center
Sun 07:56:11 PM 37.4881 -93.4664 287° West 263 303 26,000  Level Kansas City Center
Sun 07:57:13 PM 37.5089 -93.5542 287° West 262 302 26,000  Level Kansas City Center
Sun 07:58:15 PM 37.5303 -93.6419 287° West 261 300 26,000  Level Kansas City Center
Sun 07:59:17 PM 37.5511 -93.7294 287° West 261 300 26,000  Level Kansas City Center
Sun 08:00:19 PM 37.5711 -93.8181 286° West 262 302 26,000  Level Kansas City Center
Sun 08:01:21 PM 37.5964 -93.9233 287° West 261 300 26,000  Level Kansas City Center
Sun 08:02:23 PM 37.6172 -94.0119 287° West 262 302 26,000  Level Kansas City Center
Sun 08:03:25 PM 37.6369 -94.1031 285° West 258 297 26,000  Level Kansas City Center
Sun 08:04:27 PM 37.6589 -94.1931 287° West 263 303 26,000  Level Kansas City Center
Sun 08:05:29 PM 37.6783 -94.2764 286° West 262 302 26,000  Level Kansas City Center
Sun 08:06:31 PM 37.6981 -94.3644 286° West 261 300 26,000  Level Kansas City Center
Sun 08:07:33 PM 37.7206 -94.4617 286° West 261 300 26,000  Level Kansas City Center
Sun 08:08:35 PM 37.7389 -94.5472 285° West 263 303 26,000  Level Kansas City Center
Sun 08:09:37 PM 37.7622 -94.6469 287° West 263 303 26,000  Level Kansas City Center
Sun 08:10:39 PM 37.7808 -94.7328 285° West 265 305 26,000  Level Kansas City Center
Sun 08:11:41 PM 37.8036 -94.8319 286° West 263 303 26,000  Level Kansas City Center
Sun 08:12:43 PM 37.8228 -94.9175 286° West 264 304 26,000  Level Kansas City Center
Sun 08:13:45 PM 37.8447 -95.0178 286° West 264 304 26,000  Level Kansas City Center
Sun 08:14:47 PM 37.8642 -95.1025 286° West 264 304 26,000  Level Kansas City Center
Sun 08:15:49 PM 37.8836 -95.1889 286° West 266 306 26,000  Level Kansas City Center
Sun 08:16:51 PM 37.9072 -95.2975 285° West 267 307 26,000  Level Kansas City Center
Sun 08:17:53 PM 37.9261 -95.3867 285° West 266 306 26,000  Level Kansas City Center
Sun 08:18:55 PM 37.9469 -95.4769 286° West 265 305 26,000  Level Kansas City Center
Sun 08:19:57 PM 37.9656 -95.5644 285° West 267 307 26,000  Level Kansas City Center
Sun 08:20:59 PM 37.9872 -95.6642 285° West 265 305 26,000  Level Kansas City Center
Sun 08:22:01 PM 38.0053 -95.7508 285° West 265 305 26,000  Level Kansas City Center
Sun 08:23:03 PM 38.0269 -95.8503 285° West 262 302 26,000  Level Kansas City Center
Sun 08:24:05 PM 38.0417 -95.9369 282° West 261 300 26,000  Level Kansas City Center
Sun 08:25:07 PM 38.0661 -96.0342 288° West 259 298 26,000  Level Kansas City Center
Sun 08:26:09 PM 38.0867 -96.1283 286° West 260 299 26,000  Level Kansas City Center
Sun 08:27:11 PM 38.1050 -96.2169 285° West 260 299 26,000  Level Kansas City Center
Sun 08:28:13 PM 38.1236 -96.3053 285° West 259 298 26,000  Level Kansas City Center
Sun 08:29:15 PM 38.1439 -96.3925 286° West 259 298 26,000  Level Kansas City Center
Sun 08:30:17 PM 38.1633 -96.4803 286° West 259 298 26,000  Level Kansas City Center
Sun 08:31:19 PM 38.1806 -96.5675 284° West 256 295 26,000  Level Kansas City Center
Sun 08:32:21 PM 38.1997 -96.6556 286° West 258 297 26,000  Level Kansas City Center
Sun 08:33:22 PM 38.2167 -96.7442 284° West 259 298 26,000  Level Kansas City Center
Sun 08:34:24 PM 38.2381 -96.8486 285° West 256 295 26,000  Level Kansas City Center
Sun 08:35:26 PM 38.2561 -96.9364 285° West 257 296 26,000  Level Kansas City Center
Sun 08:36:28 PM 38.2742 -97.0233 285° West 255 293 26,000  Level Kansas City Center
Sun 08:37:30 PM 38.2914 -97.1089 284° West 252 290 26,000  Level Kansas City Center
Sun 08:38:32 PM 38.3089 -97.1961 284° West 254 292 26,000  Level Kansas City Center
Sun 08:39:33 PM 38.3264 -97.2828 284° West 254 292 26,000  Level Kansas City Center
Sun 08:40:35 PM 38.3469 -97.3875 284° West 255 293 26,000  Level Kansas City Center
Sun 08:41:37 PM 38.3647 -97.4739 285° West 255 293 26,000  Level Kansas City Center
Sun 08:42:39 PM 38.3819 -97.5617 284° West 256 295 26,000  Level Kansas City Center
Sun 08:43:40 PM 38.3992 -97.6503 284° West 258 297 26,000  Level Kansas City Center
Sun 08:44:42 PM 38.4167 -97.7383 284° West 258 297 26,000  Level Kansas City Center
Sun 08:45:44 PM 38.4333 -97.8256 284° West 256 295 26,000  Level Kansas City Center
Sun 08:46:46 PM 38.4547 -97.9308 285° West 256 295 26,000  Level Kansas City Center
Sun 08:47:47 PM 38.4711 -98.0178 284° West 253 291 26,000  Level Kansas City Center
Sun 08:48:49 PM 38.4872 -98.1044 283° West 253 291 26,000  Level Kansas City Center
Sun 08:49:51 PM 38.5036 -98.1892 284° West 248 285 26,000  Level Kansas City Center
Sun 08:50:53 PM 38.5203 -98.2750 284° West 249 287 26,000  Level Kansas City Center
Sun 08:51:54 PM 38.5364 -98.3611 283° West 251 289 26,000  Level Kansas City Center
Sun 08:52:56 PM 38.5519 -98.4464 283° West 247 284 26,000  Level Kansas City Center
Sun 08:53:58 PM 38.5711 -98.5475 284° West 245 282 26,000  Level Kansas City Center
Sun 08:54:59 PM 38.5875 -98.6322 284° West 245 282 26,000  Level Kansas City Center
Sun 08:56:01 PM 38.6031 -98.7167 283° West 245 282 26,000  Level Kansas City Center
Sun 08:57:03 PM 38.6192 -98.8019 284° West 247 284 26,000  Level Kansas City Center
Sun 08:58:04 PM 38.6353 -98.8850 284° West 244 281 26,000  Level Kansas City Center
Sun 08:59:06 PM 38.6506 -98.9703 283° West 245 282 26,000  Level Kansas City Center
Sun 09:00:08 PM 38.6667 -99.0561 284° West 247 284 26,000  Level Kansas City Center
Sun 09:01:09 PM 38.6856 -99.1586 283° West 247 284 26,000  Level Kansas City Center
Sun 09:02:11 PM 38.7011 -99.2439 283° West 246 283 26,000  Level Kansas City Center
Sun 09:03:13 PM 38.7161 -99.3283 283° West 245 282 26,000  Level Kansas City Center
Sun 09:04:14 PM 38.7314 -99.4147 283° West 247 284 26,000  Level Kansas City Center
Sun 09:05:16 PM 38.7467 -99.4978 283° West 243 280 26,000  Level Kansas City Center
Sun 09:06:18 PM 38.7619 -99.5864 282° West 245 282 26,000  Level Kansas City Center
Sun 09:07:19 PM 38.7792 -99.6808 283° West 244 281 26,000  Level Kansas City Center
Sun 09:08:21 PM 38.7925 -99.7614 282° West 243 280 26,000  Level Kansas City Center
Sun 09:09:23 PM 38.8103 -99.8542 284° West 241 277 26,000  Level Kansas City Center
Sun 09:10:24 PM 38.8228 -99.9344 281° West 241 277 26,000  Level Kansas City Center
Sun 09:11:26 PM 38.8394 -100.0281 283° West 241 277 26,000  Level Kansas City Center
Sun 09:12:27 PM 38.8531 -100.1092 282° West 243 280 26,000  Level Kansas City Center
Sun 09:13:29 PM 38.8667 -100.1886 282° West 241 277 26,000  Level Kansas City Center
Sun 09:14:31 PM 38.8831 -100.2822 283° West 242 278 26,000  Level Kansas City Center
Sun 09:15:33 PM 38.8967 -100.3611 283° West 239 275 26,000  Level Kansas City Center
Sun 09:16:34 PM 38.9122 -100.4544 282° West 240 276 26,000  Level Kansas City Center
Sun 09:17:36 PM 38.9256 -100.5364 282° West 243 280 26,000  Level Kansas City Center
Sun 09:18:38 PM 38.9422 -100.6297 283° West 242 278 26,000  Level Kansas City Center
Sun 09:19:39 PM 38.9553 -100.7094 282° West 241 277 26,000  Level Kansas City Center
Sun 09:20:41 PM 38.9703 -100.8017 282° West 237 273 26,000  Level Kansas City Center
Sun 09:21:43 PM 38.9842 -100.8797 283° West 236 272 26,000  Level Kansas City Center
Sun 09:23:11 PM 39.0031 -100.9956 282° West 233 268 26,000  Level Denver Center
Sun 09:24:14 PM 39.0172 -101.0858 281° West 231 266 26,000  Level Denver Center
Sun 09:25:15 PM 39.0303 -101.1628 282° West 231 266 26,000  Level Denver Center
Sun 09:26:17 PM 39.0458 -101.2531 283° West 232 267 26,000  Level Denver Center
Sun 09:27:19 PM 39.0572 -101.3297 281° West 229 264 26,000  Level Denver Center
Sun 09:28:21 PM 39.0700 -101.4078 282° West 231 266 26,000  Level Denver Center
Sun 09:29:23 PM 39.0847 -101.4978 282° West 231 266 26,000  Level Denver Center
Sun 09:30:25 PM 39.0972 -101.5767 282° West 234 269 26,000  Level Denver Center
Sun 09:31:27 PM 39.1108 -101.6683 281° West 234 269 26,000  Level Denver Center
Sun 09:32:29 PM 39.1242 -101.7464 282° West 237 273 26,000  Level Denver Center
Sun 09:33:31 PM 39.1381 -101.8369 281° West 232 267 26,000  Level Denver Center
Sun 09:34:33 PM 39.1508 -101.9172 282° West 237 273 26,000  Level Denver Center
Sun 09:35:35 PM 39.1650 -102.0100 281° West 238 274 26,000  Level Denver Center
Sun 09:36:37 PM 39.1778 -102.0886 282° West 236 272 26,000  Level Denver Center
Sun 09:37:39 PM 39.1911 -102.1811 281° West 236 272 26,000  Level Denver Center
Sun 09:38:41 PM 39.2036 -102.2606 282° West 237 273 26,000  Level Denver Center
Sun 09:39:43 PM 39.2175 -102.3539 281° West 239 275 26,000  Level Denver Center
Sun 09:40:45 PM 39.2303 -102.4339 282° West 239 275 26,000  Level Denver Center
Sun 09:41:47 PM 39.2442 -102.5283 281° West 240 276 26,000  Level Denver Center
Sun 09:42:49 PM 39.2561 -102.6100 281° West 242 278 26,000 -97 Level Denver Center
Sun 09:43:51 PM 39.2717 -102.7047 282° West 241 277 25,800 -339 Descending Denver Center
Sun 09:44:53 PM 39.2839 -102.7894 281° West 251 289 25,300 -581 Descending Denver Center
Sun 09:45:55 PM 39.2967 -102.8772 281° West 251 289 24,600 -726 Descending Denver Center
Sun 09:46:57 PM 39.3083 -102.9653 280° West 251 289 23,800 -1,016 Descending Denver Center
Sun 09:47:59 PM 39.3203 -103.0731 278° West 252 290 22,500 -1,065 Descending Denver Center
Sun 09:49:01 PM 39.3300 -103.1636 278° West 256 295 21,600 -968 Descending Denver Center
Sun 09:50:03 PM 39.3397 -103.2544 278° West 257 296 20,500 -1,016 Descending Denver Center
Sun 09:51:05 PM 39.3492 -103.3453 278° West 256 295 19,500 -968 Descending Denver Center
Sun 09:52:07 PM 39.3858 -103.4256 301° West 260 299 18,500 -968 Descending Denver Center
Sun 09:53:09 PM 39.4228 -103.5069 300° West 264 304 17,500 -1,258 Descending Denver Center
Sun 09:54:11 PM 39.4606 -103.5897 301° West 265 305 15,900 -1,707 Descending Denver Center
Sun 09:55:12 PM 39.4953 -103.7033 292° West 282 325 14,000 -1,707 Descending Denver Center
Sun 09:56:14 PM 39.5169 -103.8078 285° West 298 343 12,400 -1,548 Descending Denver Center
Sun 09:57:16 PM 39.5225 -103.9064 274° West 282 325 10,800 -1,742 Descending Denver Center
Sun 09:58:18 PM 39.5189 -104.0156 268° West 281 323 8,800 -1,355 Descending Denver Center
Sun 09:59:20 PM 39.5153 -104.1144 267° West 277 319 8,000 -387 Descending Denver Center
Sun 10:00:22 PM 39.5119 -104.2136 268° West 262 302 8,000  Level Denver Center
Sun 10:01:24 PM 39.5094 -104.3031 268° West 254 292 8,000  Level Denver Center
Sun 10:02:26 PM 39.5067 -104.3936 268° West 253 291 8,000  Level Denver Center
Sun 10:03:28 PM 39.5039 -104.4889 268° West 250 288 8,000  Level Denver Center
Sun 10:04:30 PM 39.5008 -104.5794 268° West 253 291 8,000  Level Denver Center
Sun 10:05:31 PM 39.5189 -104.6653 285° West 249 287 8,000 -341 Level Denver Center
Sun 10:06:33 PM 39.5414 -104.7428 291° West 210 242 7,300 -726 Descending Denver Center
Sun 10:07:35 PM 39.5539 -104.7872 290° West 141 162 6,500 -677 Descending Denver Center
Sun 10:08:37 PM 39.5672 -104.8308 292° West 123 142 5,900 -581 Descending Denver Center
Sun 10:10:00 PM 39.5667 -104.8333 282° West  Level FlightAware Approximate
Sun 10:17:00 PM 39.5701 -104.8493 282° West  Level Estimated
Sun 10:18:00 PM 39.5701 -104.8493 282° West  Level Estimated
Sun 10:19:00 PM 39.5701 -104.8493 282° West  Level Estimated

Login

Don't have an account? Register now (free) for customized features, flight alerts, and more!